Time;durP1;ratioP1;P1;durP2;ratioP2;P2;SDS_P1;SDS_P2;PMS_P1;PMS_P2;Temp;Humidity;BMP_temperature;BMP_pressure;BME280_temperature;BME280_humidity;BME280_pressure;Samples;Min_cycle;Max_cycle;Signal;HPM_P1;HPM_P2
2023/04/13 00:01:18;;;;;;;5.00;2.15;;;;;;;5.39;100.00;99143.84;5127450;28;20105;-68
2023/04/13 00:03:48;;;;;;;6.20;2.50;;;;;;;5.45;100.00;99147.97;5150767;28;20497;-69
2023/04/13 00:06:19;;;;;;;7.25;2.30;;;;;;;5.45;100.00;99142.78;5150787;28;20141;-71
2023/04/13 00:08:53;;;;;;;5.35;2.22;;;;;;;5.53;100.00;99145.91;5146782;28;20358;-68
2023/04/13 00:11:26;;;;;;;6.00;2.67;;;;;;;5.63;100.00;99149.84;5145696;28;20034;-70
2023/04/13 00:13:57;;;;;;;4.20;2.13;;;;;;;5.59;100.00;99140.50;5148852;28;20109;-69
2023/04/13 00:16:30;;;;;;;10.93;2.78;;;;;;;5.72;100.00;99139.13;5154012;28;20157;-70
2023/04/13 00:19:00;;;;;;;6.10;2.65;;;;;;;5.71;100.00;99142.63;5145590;28;20081;-73
2023/04/13 00:21:33;;;;;;;9.05;2.95;;;;;;;5.68;100.00;99156.53;5146774;28;20054;-70
2023/04/13 00:24:03;;;;;;;6.95;2.70;;;;;;;5.73;100.00;99153.78;5147880;28;20022;-71
2023/04/13 00:26:33;;;;;;;7.38;2.67;;;;;;;5.80;100.00;99150.94;5148148;28;20464;-71
2023/04/13 00:29:04;;;;;;;8.43;2.60;;;;;;;5.78;100.00;99157.88;5147101;28;20105;-71
2023/04/13 00:31:34;;;;;;;7.22;2.30;;;;;;;5.83;100.00;99165.50;5146470;28;20026;-73
2023/04/13 00:34:05;;;;;;;5.90;2.60;;;;;;;5.76;100.00;99164.03;5148647;28;20106;-72
2023/04/13 00:36:36;;;;;;;6.68;2.80;;;;;;;5.81;100.00;99168.16;5140874;28;20113;-72
2023/04/13 00:39:07;;;;;;;7.18;2.60;;;;;;;5.83;100.00;99155.13;5130295;28;20129;-71
2023/04/13 00:41:37;;;;;;;15.50;3.83;;;;;;;5.84;100.00;99159.41;5135184;28;20069;-73
2023/04/13 00:44:10;;;;;;;6.93;3.10;;;;;;;5.85;100.00;99153.31;5149230;28;20034;-73
2023/04/13 00:46:41;;;;;;;8.95;3.20;;;;;;;5.93;100.00;99146.09;5143169;28;20097;-72
2023/04/13 00:49:13;;;;;;;6.97;2.53;;;;;;;5.85;100.00;99150.72;5145144;28;20051;-72
2023/04/13 00:51:44;;;;;;;8.65;2.45;;;;;;;5.80;100.00;99144.88;5149269;28;20034;-71
2023/04/13 00:54:15;;;;;;;6.82;1.90;;;;;;;5.75;100.00;99145.03;5147389;28;20492;-73
2023/04/13 00:56:47;;;;;;;4.20;2.13;;;;;;;5.66;100.00;99147.13;5133357;28;20027;-73
2023/04/13 00:59:18;;;;;;;6.05;1.90;;;;;;;5.53;100.00;99148.50;5149745;28;20026;-73
2023/04/13 01:01:55;;;;;;;9.93;2.30;;;;;;;5.49;100.00;99149.53;5146923;28;20109;-70
2023/04/13 01:04:26;;;;;;;10.60;2.13;;;;;;;5.49;100.00;99154.69;5131069;28;20030;-72
2023/04/13 01:07:07;;;;;;;6.60;2.13;;;;;;;5.47;100.00;99156.50;5176747;23;21188;-73
2023/04/13 01:09:51;;;;;;;7.47;2.60;;;;;;;5.49;100.00;99165.94;5206445;28;20037;-72
2023/04/13 01:12:37;;;;;;;7.20;2.30;;;;;;;5.51;100.00;99158.06;5208775;28;20040;-71
2023/04/13 01:15:11;;;;;;;;;;;;;;;5.49;100.00;99158.16;5196845;28;21053;-71
2023/04/13 01:17:46;;;;;;;7.00;2.90;;;;;;;5.48;100.00;99159.06;5190025;28;20286;-72
2023/04/13 01:20:19;;;;;;;;;;;;;;;5.56;100.00;99159.59;5168178;28;20383;-72
2023/04/13 01:22:56;;;;;;;6.13;3.00;;;;;;;5.49;100.00;99159.88;5185820;28;19941;-72
2023/04/13 01:25:44;;;;;;;8.32;3.80;;;;;;;5.47;100.00;99159.97;5164924;28;20029;-72
2023/04/13 01:28:16;;;;;;;8.05;3.78;;;;;;;5.52;100.00;99159.75;5192497;28;20034;-73
2023/04/13 01:30:48;;;;;;;7.72;3.55;;;;;;;5.51;100.00;99148.56;5178274;28;20092;-72
2023/04/13 01:33:20;;;;;;;9.15;3.70;;;;;;;5.58;100.00;99162.97;5171559;28;20503;-72
2023/04/13 01:35:51;;;;;;;9.63;3.67;;;;;;;5.59;100.00;99145.69;5184393;28;20041;-72
2023/04/13 01:38:25;;;;;;;10.10;4.10;;;;;;;5.71;100.00;99148.66;5170189;28;20109;-72
2023/04/13 01:40:56;;;;;;;10.00;3.58;;;;;;;5.73;100.00;99148.59;5169262;28;20026;-72
2023/04/13 01:43:26;;;;;;;6.22;3.63;;;;;;;5.71;100.00;99145.22;5174985;28;20029;-72
2023/04/13 01:46:03;;;;;;;12.65;4.70;;;;;;;5.72;100.00;99146.91;5177195;28;20381;-73
2023/04/13 01:48:39;;;;;;;9.13;3.90;;;;;;;5.76;100.00;99141.53;5181073;28;20084;-72
2023/04/13 01:51:15;;;;;;;8.40;3.50;;;;;;;5.74;100.00;99130.38;5189128;28;20035;-73
2023/04/13 01:53:50;;;;;;;7.10;3.35;;;;;;;5.76;100.00;99138.09;5186390;28;20387;-72
2023/04/13 01:56:21;;;;;;;9.07;3.42;;;;;;;5.76;100.00;99144.13;5185134;28;20091;-73
2023/04/13 01:58:56;;;;;;;10.20;3.05;;;;;;;5.75;100.00;99146.78;5183434;28;20596;-73
2023/04/13 02:01:27;;;;;;;6.22;3.00;;;;;;;5.89;100.00;99147.94;5183760;28;20038;-73
2023/04/13 02:03:57;;;;;;;8.32;2.72;;;;;;;5.87;100.00;99131.63;5183610;28;20033;-73
2023/04/13 02:06:28;;;;;;;4.75;2.58;;;;;;;5.83;100.00;99124.88;5193661;28;20041;-73
2023/04/13 02:08:58;;;;;;;6.80;2.50;;;;;;;5.85;100.00;99127.41;5185945;28;20014;-72
2023/04/13 02:11:28;;;;;;;6.90;2.42;;;;;;;5.90;100.00;99131.50;5187291;28;20091;-73
2023/04/13 02:13:59;;;;;;;5.50;2.50;;;;;;;5.96;100.00;99130.41;5170326;28;20038;-73
2023/04/13 02:16:29;;;;;;;6.47;2.50;;;;;;;5.80;100.00;99129.34;5190637;28;20026;-73
2023/04/13 02:19:00;;;;;;;4.55;2.05;;;;;;;5.85;100.00;99123.06;5170310;28;20044;-73
2023/04/13 02:21:30;;;;;;;9.23;2.47;;;;;;;5.94;100.00;99127.88;5183485;28;20116;-72
2023/04/13 02:24:01;;;;;;;4.90;2.05;;;;;;;5.88;100.00;99128.13;5169741;28;20084;-73
2023/04/13 02:26:32;;;;;;;4.03;2.08;;;;;;;5.85;100.00;99130.00;5191468;28;20037;-72
2023/04/13 02:29:02;;;;;;;4.57;2.30;;;;;;;5.74;100.00;99130.38;5183181;28;20816;-72
2023/04/13 02:31:33;;;;;;;5.20;2.08;;;;;;;5.70;100.00;99127.97;5188177;28;20079;-72
2023/04/13 02:34:04;;;;;;;5.32;1.83;;;;;;;5.73;100.00;99118.31;5166548;28;20551;-73
2023/04/13 02:36:34;;;;;;;4.20;1.95;;;;;;;5.72;100.00;99126.19;5184339;28;20025;-72
2023/04/13 02:39:05;;;;;;;3.78;2.10;;;;;;;5.68;100.00;99122.84;5185052;28;20537;-73
2023/04/13 02:41:35;;;;;;;7.72;2.20;;;;;;;5.50;100.00;99135.66;5193017;28;20061;-71
2023/04/13 02:44:05;;;;;;;5.93;2.55;;;;;;;5.42;100.00;99135.13;5185946;28;20029;-72
2023/04/13 02:46:36;;;;;;;5.32;2.60;;;;;;;5.40;100.00;99130.00;5188881;28;20471;-71
2023/04/13 02:49:07;;;;;;;9.13;2.60;;;;;;;5.44;100.00;99135.91;5190367;28;20057;-73
2023/04/13 02:51:38;;;;;;;5.20;2.65;;;;;;;5.46;100.00;99134.09;5192622;28;20045;-73
2023/04/13 02:54:10;;;;;;;3.97;1.92;;;;;;;5.50;100.00;99133.94;5192485;28;20419;-73
2023/04/13 02:56:40;;;;;;;3.80;1.95;;;;;;;5.64;100.00;99130.81;5193323;28;20441;-73
2023/04/13 02:59:11;;;;;;;6.15;1.98;;;;;;;5.63;100.00;99131.72;5192444;28;20471;-73
2023/04/13 03:01:44;;;;;;;5.78;2.33;;;;;;;5.63;100.00;99136.88;5174972;28;20057;-73
2023/04/13 03:04:14;;;;;;;6.65;2.35;;;;;;;5.60;100.00;99131.84;5192043;28;20030;-73
2023/04/13 03:06:44;;;;;;;6.75;2.50;;;;;;;5.65;100.00;99135.94;5191654;28;20495;-72
2023/04/13 03:09:16;;;;;;;5.55;1.88;;;;;;;5.67;100.00;99125.50;5193204;28;20027;-72
2023/04/13 03:11:46;;;;;;;4.93;2.30;;;;;;;5.69;100.00;99127.13;5185869;28;20079;-72
2023/04/13 03:14:20;;;;;;;6.38;2.90;;;;;;;5.68;100.00;99119.41;5187720;28;20061;-74
2023/04/13 03:16:51;;;;;;;4.10;2.30;;;;;;;5.64;100.00;99118.72;5187446;28;20034;-73
2023/04/13 03:19:22;;;;;;;5.45;2.05;;;;;;;5.57;100.00;99124.19;5185166;28;20018;-73
2023/04/13 03:21:52;;;;;;;4.38;2.30;;;;;;;5.47;100.00;99136.66;5188848;28;20044;-72
2023/04/13 03:24:26;;;;;;;4.18;2.20;;;;;;;5.35;100.00;99136.25;5189824;28;20121;-73
2023/04/13 03:26:56;;;;;;;7.13;1.90;;;;;;;5.29;100.00;99131.31;5192326;28;20394;-73
2023/04/13 03:29:27;;;;;;;5.68;2.15;;;;;;;5.25;100.00;99129.75;5188050;28;20025;-72
2023/04/13 03:31:57;;;;;;;3.30;1.92;;;;;;;5.17;100.00;99130.94;5187378;28;20514;-73
2023/04/13 03:34:27;;;;;;;4.55;2.20;;;;;;;5.08;100.00;99137.28;5188396;28;20054;-73
2023/04/13 03:36:58;;;;;;;6.07;2.13;;;;;;;5.05;100.00;99141.72;5174727;28;20026;-73
2023/04/13 03:39:28;;;;;;;4.30;1.75;;;;;;;5.12;100.00;99143.22;5187254;28;20053;-73
2023/04/13 03:42:01;;;;;;;4.47;1.67;;;;;;;5.09;100.00;99138.97;5170153;28;20061;-72
2023/04/13 03:44:31;;;;;;;3.13;1.52;;;;;;;5.14;100.00;99139.63;5173987;28;20032;-72
2023/04/13 03:47:02;;;;;;;7.03;1.40;;;;;;;5.14;100.00;99142.22;5179653;28;20026;-72
2023/04/13 03:49:32;;;;;;;2.28;1.20;;;;;;;5.20;100.00;99151.53;5174800;28;20017;-72
2023/04/13 03:52:02;;;;;;;2.05;1.10;;;;;;;5.23;100.00;99157.44;5168608;28;20022;-73
2023/04/13 03:54:33;;;;;;;2.53;1.00;;;;;;;5.17;100.00;99149.88;5181606;28;20453;-72
2023/04/13 03:57:03;;;;;;;1.63;0.85;;;;;;;5.21;100.00;99148.88;5186089;28;20488;-74
2023/04/13 03:59:34;;;;;;;1.77;0.82;;;;;;;5.18;100.00;99159.34;5188268;28;20070;-73
2023/04/13 04:02:05;;;;;;;2.13;0.90;;;;;;;5.19;100.00;99153.25;5177192;28;20065;-73
2023/04/13 04:04:36;;;;;;;1.52;0.80;;;;;;;5.21;100.00;99158.38;5187061;28;20034;-73
2023/04/13 04:07:06;;;;;;;2.17;1.10;;;;;;;5.27;100.00;99164.19;5186622;28;20527;-73
2023/04/13 04:09:37;;;;;;;3.58;0.93;;;;;;;5.20;100.00;99167.91;5176094;28;20033;-72
2023/04/13 04:12:07;;;;;;;5.78;0.90;;;;;;;5.10;100.00;99171.72;5166203;28;20049;-71
2023/04/13 04:14:38;;;;;;;2.50;0.90;;;;;;;4.97;100.00;99170.47;5169386;28;20031;-73
2023/04/13 04:17:08;;;;;;;2.63;1.20;;;;;;;4.80;100.00;99183.16;5184338;28;20442;-73
2023/04/13 04:19:38;;;;;;;3.40;1.00;;;;;;;4.77;100.00;99182.44;5164729;28;20037;-72
2023/04/13 04:22:09;;;;;;;3.25;1.30;;;;;;;4.85;100.00;99194.22;5188026;28;20500;-71
2023/04/13 04:24:41;;;;;;;2.03;1.23;;;;;;;4.81;100.00;99184.84;5189083;28;20021;-72
2023/04/13 04:27:13;;;;;;;4.32;1.42;;;;;;;4.81;100.00;99186.59;5181846;28;20063;-73
2023/04/13 04:29:48;;;;;;;2.72;1.00;;;;;;;4.90;100.00;99183.69;5190528;28;20025;-72
2023/04/13 04:32:22;;;;;;;2.90;1.38;;;;;;;4.88;100.00;99191.50;5184061;28;20072;-72
2023/04/13 04:34:53;;;;;;;2.63;1.00;;;;;;;5.00;100.00;99193.66;5164063;28;20033;-72
2023/04/13 04:37:24;;;;;;;1.90;0.90;;;;;;;5.02;100.00;99184.13;5183947;28;20051;-73
2023/04/13 04:39:55;;;;;;;2.70;0.85;;;;;;;5.11;100.00;99188.94;5171561;28;20023;-73
2023/04/13 04:42:26;;;;;;;2.70;1.00;;;;;;;5.07;100.00;99196.88;5179895;28;20556;-72
2023/04/13 04:44:56;;;;;;;3.83;1.00;;;;;;;5.23;100.00;99192.84;5193029;28;20269;-73
2023/04/13 04:47:29;;;;;;;1.83;0.65;;;;;;;5.22;100.00;99189.41;5183475;28;20390;-72
2023/04/13 04:50:00;;;;;;;2.58;1.20;;;;;;;5.23;100.00;99185.06;5177864;28;20034;-73
2023/04/13 04:52:31;;;;;;;2.50;0.90;;;;;;;5.31;100.00;99188.25;5174508;28;20025;-73
2023/04/13 04:55:02;;;;;;;0.63;0.45;;;;;;;5.37;100.00;99190.59;5180917;28;20033;-74
2023/04/13 04:57:33;;;;;;;1.52;0.60;;;;;;;5.54;100.00;99199.44;5187440;28;20026;-73
2023/04/13 05:00:14;;;;;;;1.73;0.68;;;;;;;5.66;100.00;99199.81;5189180;28;20052;-72
2023/04/13 05:02:45;;;;;;;1.40;0.73;;;;;;;5.82;100.00;99202.69;5197123;28;20532;-72
2023/04/13 05:05:15;;;;;;;3.40;0.70;;;;;;;6.07;100.00;99206.03;5192409;28;20056;-71
2023/04/13 05:07:46;;;;;;;1.30;0.57;;;;;;;6.22;100.00;99190.69;5177324;28;20027;-72
2023/04/13 05:10:16;;;;;;;1.60;0.60;;;;;;;6.43;100.00;99199.38;5189671;28;20033;-72
2023/04/13 05:12:46;;;;;;;1.90;0.60;;;;;;;6.70;100.00;99195.59;5192071;28;20036;-74
2023/04/13 05:15:17;;;;;;;2.20;0.60;;;;;;;6.94;100.00;99197.19;5192291;28;20124;-73
2023/04/13 05:17:49;;;;;;;2.13;0.60;;;;;;;7.34;100.00;99193.59;5167556;28;20479;-71
2023/04/13 05:20:19;;;;;;;4.00;0.70;;;;;;;7.52;100.00;99197.97;5176632;28;20471;-73
2023/04/13 05:22:50;;;;;;;3.42;0.50;;;;;;;8.14;100.00;99193.31;5165546;28;20128;-73
2023/04/13 05:25:20;;;;;;;1.60;0.77;;;;;;;8.49;99.54;99195.06;5173438;28;20048;-70
2023/04/13 05:27:50;;;;;;;2.20;0.50;;;;;;;8.62;97.78;99196.16;5182294;28;20030;-73
2023/04/13 05:30:21;;;;;;;2.90;0.52;;;;;;;8.40;97.52;99200.72;5174525;28;20026;-72
2023/04/13 05:32:51;;;;;;;2.65;0.50;;;;;;;8.15;98.55;99202.78;5183004;28;20037;-73
2023/04/13 05:35:22;;;;;;;0.50;0.28;;;;;;;8.03;100.00;99211.16;5189139;28;20025;-73
2023/04/13 05:37:52;;;;;;;2.20;0.50;;;;;;;8.10;100.00;99216.94;5185757;28;20443;-72
2023/04/13 05:40:23;;;;;;;0.70;0.40;;;;;;;7.92;100.00;99221.25;5165489;28;20082;-73
2023/04/13 05:42:53;;;;;;;3.45;0.60;;;;;;;7.98;100.00;99218.34;5183970;28;20053;-72
2023/04/13 05:45:23;;;;;;;1.27;0.55;;;;;;;7.92;100.00;99226.47;5176638;28;20083;-73
2023/04/13 05:47:54;;;;;;;2.05;0.60;;;;;;;7.99;100.00;99225.25;5183272;28;20076;-73
2023/04/13 05:50:24;;;;;;;1.75;0.50;;;;;;;8.14;100.00;99229.72;5176675;28;20033;-73
2023/04/13 05:52:56;;;;;;;1.33;0.40;;;;;;;8.29;100.00;99223.84;5182397;28;20034;-73
2023/04/13 05:55:26;;;;;;;1.10;0.40;;;;;;;8.45;100.00;99224.78;5178722;28;20022;-73
2023/04/13 05:57:57;;;;;;;1.38;0.50;;;;;;;8.37;99.67;99220.88;5183421;28;20049;-74
2023/04/13 06:00:28;;;;;;;1.48;0.45;;;;;;;8.54;99.38;99213.06;5176425;28;20037;-74
2023/04/13 06:03:00;;;;;;;2.53;0.68;;;;;;;8.70;100.00;99216.63;5180479;28;20030;-73
2023/04/13 06:05:31;;;;;;;1.70;0.45;;;;;;;8.81;99.84;99215.16;5183344;28;20025;-73
2023/04/13 06:08:02;;;;;;;1.45;0.50;;;;;;;8.91;100.00;99208.53;5183281;28;20029;-74
2023/04/13 06:10:32;;;;;;;2.70;0.52;;;;;;;8.90;99.36;99198.22;5182095;28;20092;-74
2023/04/13 06:13:03;;;;;;;3.20;0.70;;;;;;;8.67;97.85;99209.78;5186837;28;20090;-74
2023/04/13 06:15:35;;;;;;;2.17;0.40;;;;;;;8.63;97.01;99212.59;5177988;28;20029;-73
2023/04/13 06:18:05;;;;;;;0.60;0.30;;;;;;;8.60;96.71;99223.19;5179702;28;20069;-73
2023/04/13 06:20:36;;;;;;;1.88;0.43;;;;;;;8.64;95.91;99219.50;5178085;28;20022;-74
2023/04/13 06:23:06;;;;;;;1.90;0.45;;;;;;;8.69;97.18;99226.16;5185805;28;20036;-73
2023/04/13 06:25:37;;;;;;;3.03;0.50;;;;;;;8.72;97.96;99233.81;5190007;28;20116;-73
2023/04/13 06:28:07;;;;;;;1.33;0.40;;;;;;;8.97;98.02;99229.09;5184456;28;20103;-73
2023/04/13 06:30:38;;;;;;;3.00;0.50;;;;;;;9.01;97.11;99228.00;5190736;28;20406;-73
2023/04/13 06:33:08;;;;;;;3.10;0.60;;;;;;;8.94;95.92;99228.41;5189917;28;20431;-73
2023/04/13 06:35:39;;;;;;;1.17;0.40;;;;;;;9.01;95.35;99234.97;5179672;28;20032;-73
2023/04/13 06:38:10;;;;;;;1.52;0.40;;;;;;;9.01;95.05;99227.16;5184056;28;20029;-74
2023/04/13 06:40:40;;;;;;;0.98;0.35;;;;;;;9.06;94.17;99228.63;5194639;28;20352;-73
2023/04/13 06:43:11;;;;;;;1.75;0.43;;;;;;;9.24;93.75;99232.88;5178201;28;21043;-71
2023/04/13 06:45:41;;;;;;;1.95;0.40;;;;;;;9.35;93.50;99220.16;5193509;28;20023;-73
2023/04/13 06:48:11;;;;;;;0.90;0.30;;;;;;;9.38;93.83;99227.78;5185064;28;20096;-74
2023/04/13 06:50:43;;;;;;;1.20;0.20;;;;;;;9.42;91.42;99224.97;5189269;28;20060;-74
2023/04/13 06:53:13;;;;;;;1.40;0.50;;;;;;;9.58;91.52;99231.06;5190524;28;20104;-72
2023/04/13 06:55:44;;;;;;;1.83;0.40;;;;;;;9.87;91.39;99219.06;5190927;28;20120;-74
2023/04/13 06:58:14;;;;;;;2.22;0.40;;;;;;;9.94;92.15;99218.63;5184193;28;20026;-74
2023/04/13 07:00:44;;;;;;;1.42;0.40;;;;;;;9.94;90.16;99216.03;5182412;28;20021;-74
2023/04/13 07:03:15;;;;;;;0.90;0.40;;;;;;;9.83;89.38;99213.16;5188215;28;20044;-73
2023/04/13 07:05:45;;;;;;;1.38;0.50;;;;;;;9.87;88.80;99219.91;5189691;28;20033;-73
2023/04/13 07:08:18;;;;;;;1.10;0.30;;;;;;;10.06;87.61;99218.00;5200335;23;20046;-73
2023/04/13 07:10:52;;;;;;;0.90;0.40;;;;;;;10.12;87.35;99219.41;5165839;28;20049;-69
2023/04/13 07:13:24;;;;;;;1.50;0.37;;;;;;;10.19;87.05;99228.59;5151202;28;20096;-73
2023/04/13 07:15:54;;;;;;;1.90;0.50;;;;;;;10.81;86.63;99221.50;5166164;28;20280;-71
2023/04/13 07:18:25;;;;;;;1.55;0.40;;;;;;;10.94;83.13;99232.06;5132668;28;20038;-73
2023/04/13 07:20:55;;;;;;;1.90;0.30;;;;;;;10.80;83.30;99224.19;5149801;28;20046;-71
2023/04/13 07:23:26;;;;;;;1.60;0.40;;;;;;;10.95;85.61;99242.44;5148857;28;20113;-73
2023/04/13 07:25:57;;;;;;;2.38;0.40;;;;;;;10.81;86.04;99236.31;5132552;28;20029;-72
2023/04/13 07:28:27;;;;;;;2.70;0.32;;;;;;;10.88;85.92;99238.50;5127903;28;20026;-74
2023/04/13 07:30:58;;;;;;;1.40;0.50;;;;;;;10.62;84.56;99246.16;5145643;28;20424;-72
2023/04/13 07:33:28;;;;;;;1.15;0.40;;;;;;;10.66;83.81;99243.28;5147477;28;20037;-73
2023/04/13 07:35:58;;;;;;;0.40;0.40;;;;;;;10.83;85.79;99251.00;5149239;28;20026;-72
2023/04/13 07:38:29;;;;;;;1.52;0.40;;;;;;;10.81;84.36;99252.84;5144698;28;20062;-72
2023/04/13 07:40:59;;;;;;;2.78;0.60;;;;;;;11.06;83.63;99240.88;5129130;28;20108;-75
2023/04/13 07:43:29;;;;;;;2.88;0.55;;;;;;;11.74;81.50;99237.63;5148351;28;20755;-72
2023/04/13 07:46:07;;;;;;;0.73;0.40;;;;;;;12.24;79.01;99237.06;5149515;28;20052;-72
2023/04/13 07:48:37;;;;;;;1.02;0.30;;;;;;;11.93;77.73;99247.81;5144374;28;20026;-71
2023/04/13 07:51:18;;;;;;;2.95;0.52;;;;;;;12.40;78.59;99254.34;5147715;28;20030;-74
2023/04/13 07:53:51;;;;;;;3.95;0.52;;;;;;;13.69;75.84;99251.69;5125010;28;20022;-71
2023/04/13 07:56:21;;;;;;;1.33;0.40;;;;;;;14.31;72.23;99255.19;5145694;28;20481;-74
2023/04/13 07:58:52;;;;;;;1.88;0.40;;;;;;;14.27;72.24;99258.97;5148756;28;20044;-73
2023/04/13 08:01:22;;;;;;;1.67;0.40;;;;;;;15.54;68.79;99249.38;5129708;28;20022;-73
2023/04/13 08:03:52;;;;;;;1.55;0.30;;;;;;;14.75;69.29;99255.44;5147012;28;20065;-74
2023/04/13 08:06:23;;;;;;;1.40;0.40;;;;;;;14.42;70.46;99257.91;5143818;28;20030;-73
2023/04/13 08:08:53;;;;;;;1.08;0.30;;;;;;;13.52;72.19;99274.78;5138865;28;20436;-72
2023/04/13 08:11:24;;;;;;;2.72;0.52;;;;;;;13.24;74.08;99270.56;5147148;28;20027;-73
2023/04/13 08:13:55;;;;;;;3.80;0.60;;;;;;;12.48;74.26;99278.25;5148979;28;20069;-73
2023/04/13 08:16:25;;;;;;;2.92;0.55;;;;;;;12.68;76.71;99271.75;5142224;28;20090;-73
2023/04/13 08:18:55;;;;;;;3.33;0.70;;;;;;;13.81;72.70;99273.63;5129435;28;20491;-73
2023/04/13 08:21:26;;;;;;;1.42;0.40;;;;;;;14.40;70.06;99265.06;5149320;28;20500;-74
2023/04/13 08:23:56;;;;;;;1.38;0.50;;;;;;;15.30;67.07;99261.75;5148009;28;20030;-73
2023/04/13 08:26:26;;;;;;;1.75;0.52;;;;;;;17.14;62.85;99252.13;5146532;28;20038;-75
2023/04/13 08:28:57;;;;;;;2.03;0.43;;;;;;;16.12;63.37;99260.53;5148477;28;20125;-73
2023/04/13 08:31:27;;;;;;;2.53;0.32;;;;;;;17.90;61.50;99247.31;5143708;28;20508;-73
2023/04/13 08:33:57;;;;;;;1.33;0.35;;;;;;;19.34;58.28;99245.66;5147411;28;20034;-73
2023/04/13 08:36:28;;;;;;;3.05;1.30;;;;;;;18.98;56.26;99247.22;5144363;28;20031;-75
2023/04/13 08:38:58;;;;;;;1.10;0.40;;;;;;;19.72;56.57;99245.59;5144525;28;20027;-75
2023/04/13 08:41:32;;;;;;;1.33;0.43;;;;;;;18.59;56.01;99252.59;5145878;28;20023;-74
2023/04/13 08:44:05;;;;;;;2.45;0.50;;;;;;;19.62;55.97;99248.25;5144264;28;20085;-72
2023/04/13 08:46:36;;;;;;;1.92;0.60;;;;;;;19.80;54.74;99245.72;5146833;28;20128;-73
2023/04/13 08:49:08;;;;;;;1.90;0.57;;;;;;;20.58;54.94;99238.94;5147372;28;20524;-73
2023/04/13 08:51:42;;;;;;;1.48;0.45;;;;;;;20.96;54.12;99241.34;5133424;28;20030;-73
2023/04/13 08:54:14;;;;;;;1.27;0.30;;;;;;;19.60;55.29;99257.34;5146703;28;20038;-73
2023/04/13 08:56:45;;;;;;;0.63;0.30;;;;;;;20.91;55.11;99251.59;5141608;28;20488;-73
2023/04/13 08:59:17;;;;;;;4.22;0.60;;;;;;;21.47;54.33;99250.25;5142805;28;20045;-73
2023/04/13 09:01:49;;;;;;;1.23;0.40;;;;;;;20.84;53.67;99261.13;5148987;28;20026;-76
2023/04/13 09:04:22;;;;;;;1.90;0.47;;;;;;;20.18;54.14;99258.84;5146946;28;20031;-73
2023/04/13 09:06:53;;;;;;;1.60;0.50;;;;;;;20.02;55.58;99262.16;5128725;28;20137;-74
2023/04/13 09:09:24;;;;;;;4.50;0.50;;;;;;;21.45;53.12;99256.72;5142857;28;20114;-74
2023/04/13 09:11:55;;;;;;;1.80;0.40;;;;;;;20.46;54.09;99268.50;5146836;28;20763;-73
2023/04/13 09:14:27;;;;;;;3.65;0.40;;;;;;;21.41;52.76;99271.31;5142416;28;20198;-73
2023/04/13 09:16:57;;;;;;;1.98;0.30;;;;;;;22.01;52.28;99268.59;5147834;28;20033;-75
2023/04/13 09:19:29;;;;;;;1.55;0.47;;;;;;;20.68;53.10;99272.41;5138521;28;20023;-73
2023/04/13 09:22:11;;;;;;;4.07;0.52;;;;;;;19.30;54.45;99278.72;5128943;28;20041;-73
2023/04/13 09:24:42;;;;;;;1.02;0.40;;;;;;;21.07;53.71;99280.97;5147602;28;20026;-73
2023/04/13 09:27:20;;;;;;;1.00;0.40;;;;;;;20.05;53.70;99287.53;5125703;28;20040;-72
2023/04/13 09:29:53;;;;;;;2.65;0.70;;;;;;;19.15;54.70;99304.78;5142294;28;20514;-74
2023/04/13 09:32:25;;;;;;;1.15;0.40;;;;;;;18.37;56.87;99304.91;5143953;28;20027;-72
2023/04/13 09:35:03;;;;;;;2.65;0.40;;;;;;;16.82;61.30;99319.91;5147519;28;20310;-73
2023/04/13 09:37:35;;;;;;;2.25;0.40;;;;;;;16.82;63.75;99319.91;5145251;28;20034;-73
2023/04/13 09:40:17;;;;;;;2.00;0.40;;;;;;;16.02;61.63;99325.47;5124396;28;20488;-71
2023/04/13 09:42:55;;;;;;;2.13;0.70;;;;;;;16.61;62.68;99316.38;5120578;28;20086;-73
2023/04/13 09:45:33;;;;;;;1.98;0.70;;;;;;;16.78;64.02;99314.03;5136863;28;20156;-72
2023/04/13 09:48:05;;;;;;;2.60;0.50;;;;;;;16.41;61.35;99324.19;5122462;28;20035;-72
2023/04/13 09:50:36;;;;;;;1.10;0.50;;;;;;;16.15;64.75;99323.56;5127547;28;20465;-72
2023/04/13 09:53:09;;;;;;;1.40;0.20;;;;;;;16.20;63.23;99331.13;5143352;28;20037;-73
2023/04/13 09:55:39;;;;;;;2.88;0.40;;;;;;;15.72;66.17;99325.19;5145281;28;20022;-74
2023/04/13 09:58:15;;;;;;;0.90;0.43;;;;;;;15.99;64.14;99330.13;5140506;28;20137;-75
2023/04/13 10:00:45;;;;;;;;;;;;;;;15.88;63.71;99323.03;5121366;28;20412;-73
2023/04/13 10:03:17;;;;;;;3.27;0.47;;;;;;;15.67;63.03;99326.50;5142349;28;19915;-73
2023/04/13 10:05:48;;;;;;;1.63;0.40;;;;;;;15.63;64.33;99328.53;5152009;28;20033;-72
2023/04/13 10:08:18;;;;;;;1.27;0.40;;;;;;;15.65;66.53;99323.13;5141877;28;20027;-72
2023/04/13 10:10:49;;;;;;;2.55;0.40;;;;;;;15.94;65.99;99329.66;5141727;28;20046;-70
2023/04/13 10:13:25;;;;;;;2.30;0.57;;;;;;;15.42;64.33;99340.69;5125177;28;20126;-70
2023/04/13 10:16:26;;;;;;;2.08;0.57;;;;;;;15.18;64.71;99342.44;5145468;28;20109;-71
2023/04/13 10:19:00;;;;;;;0.98;0.43;;;;;;;15.77;67.80;99344.13;5140752;28;20027;-71
2023/04/13 10:21:38;;;;;;;0.80;0.40;;;;;;;15.88;66.94;99346.75;5146723;28;20496;-71
2023/04/13 10:24:11;;;;;;;1.20;0.30;;;;;;;15.96;65.56;99359.34;5145096;28;20053;-73
2023/04/13 10:26:44;;;;;;;1.63;0.60;;;;;;;15.23;65.87;99368.44;5141265;28;20030;-72
2023/04/13 10:29:28;;;;;;;3.13;0.95;;;;;;;15.52;67.67;99381.16;5143326;28;20026;-70
2023/04/13 10:32:02;;;;;;;3.88;0.60;;;;;;;16.03;70.44;99387.75;5145534;28;20060;-72
2023/04/13 10:34:33;;;;;;;2.28;0.80;;;;;;;15.34;66.76;99385.16;5125635;28;20108;-73
2023/04/13 10:37:15;;;;;;;4.50;1.30;;;;;;;15.50;65.64;99382.25;5144564;28;20038;-73
2023/04/13 10:39:46;;;;;;;2.42;0.63;;;;;;;15.66;65.12;99382.75;5133533;28;20164;-71
2023/04/13 10:42:16;;;;;;;2.08;0.50;;;;;;;15.67;65.57;99379.19;5142692;28;20400;-71
2023/04/13 10:44:49;;;;;;;1.33;0.38;;;;;;;15.91;65.33;99388.69;5148451;28;20174;-72
2023/04/13 10:47:20;;;;;;;2.30;0.50;;;;;;;15.56;65.01;99384.41;5126761;28;20159;-70
2023/04/13 10:49:51;;;;;;;1.85;0.40;;;;;;;14.79;63.86;99398.91;5143484;28;20320;-72
2023/04/13 10:52:22;;;;;;;3.42;0.40;;;;;;;14.55;64.18;99393.59;5128091;28;20042;-72
2023/04/13 10:54:53;;;;;;;2.05;0.52;;;;;;;14.56;66.68;99402.34;5147851;28;20030;-71
2023/04/13 10:57:23;;;;;;;1.50;0.40;;;;;;;14.50;64.61;99400.13;5124618;28;20464;-70
2023/04/13 10:59:55;;;;;;;1.55;0.70;;;;;;;14.75;64.24;99392.22;5146590;28;20145;-71
2023/04/13 11:02:30;;;;;;;1.33;0.40;;;;;;;14.65;64.40;99401.69;5132636;28;20023;-71
2023/04/13 11:05:00;;;;;;;1.52;0.50;;;;;;;14.86;64.83;99391.31;5144667;28;20026;-72
2023/04/13 11:07:32;;;;;;;2.08;0.50;;;;;;;15.05;63.16;99390.84;5145082;28;20105;-71
2023/04/13 11:10:04;;;;;;;1.73;0.60;;;;;;;14.90;63.56;99407.72;5143754;28;20531;-72
2023/04/13 11:12:34;;;;;;;1.70;0.85;;;;;;;15.20;63.57;99401.06;5139023;28;20034;-72
2023/04/13 11:15:07;;;;;;;8.88;3.58;;;;;;;15.15;63.28;99391.88;5129464;28;20081;-68
2023/04/13 11:17:40;;;;;;;10.45;4.32;;;;;;;15.33;65.03;99393.19;5152399;28;20030;-71
2023/04/13 11:20:11;;;;;;;2.00;0.50;;;;;;;15.39;65.77;99398.81;5143933;28;20483;-72
2023/04/13 11:22:41;;;;;;;1.63;0.50;;;;;;;15.36;63.51;99420.09;5141014;28;20034;-71
2023/04/13 11:25:12;;;;;;;2.78;0.40;;;;;;;14.82;64.39;99425.84;5147695;28;20058;-72
2023/04/13 11:27:42;;;;;;;0.77;0.40;;;;;;;14.89;62.74;99429.72;5132828;28;20125;-73
2023/04/13 11:30:13;;;;;;;1.20;0.45;;;;;;;14.70;63.00;99423.22;5148673;28;20019;-72
2023/04/13 11:32:43;;;;;;;0.80;0.30;;;;;;;14.79;63.72;99420.78;5148133;28;20093;-71
2023/04/13 11:35:14;;;;;;;1.83;0.70;;;;;;;15.10;64.43;99422.91;5141019;28;20037;-71
2023/04/13 11:37:47;;;;;;;2.05;0.50;;;;;;;15.22;65.90;99422.03;5147778;28;20038;-72
2023/04/13 11:40:22;;;;;;;2.15;0.75;;;;;;;15.26;64.79;99421.72;5127972;28;20425;-69
2023/04/13 11:42:54;;;;;;;1.15;0.20;;;;;;;15.70;67.89;99414.00;5138396;28;20438;-72
2023/04/13 11:45:27;;;;;;;0.35;0.20;;;;;;;15.72;66.86;99422.66;5124758;28;20536;-72
2023/04/13 11:47:58;;;;;;;0.77;0.20;;;;;;;15.68;66.75;99418.56;5134345;28;20026;-72
2023/04/13 11:50:29;;;;;;;0.88;0.20;;;;;;;15.54;66.46;99434.53;5134583;28;20033;-72
2023/04/13 11:53:00;;;;;;;0.63;0.20;;;;;;;15.50;66.25;99424.38;5116901;28;20438;-73
2023/04/13 11:55:32;;;;;;;0.60;0.20;;;;;;;15.53;64.97;99424.97;5135490;28;20054;-71